createdAt,value
2022-11-09T00:02:24.216Z,11.90
2022-11-09T00:04:52.955Z,10.80
2022-11-09T00:07:21.788Z,10.70
2022-11-09T00:09:52.060Z,10.90
2022-11-09T00:12:20.940Z,11.00
2022-11-09T00:14:49.808Z,11.00
2022-11-09T00:17:18.550Z,10.90
2022-11-09T00:19:47.409Z,10.70
2022-11-09T00:22:34.743Z,10.60
2022-11-09T00:25:05.076Z,10.60
2022-11-09T00:27:33.806Z,10.70
2022-11-09T00:30:02.605Z,10.80
2022-11-09T00:32:31.431Z,10.80
2022-11-09T00:35:00.206Z,10.80
2022-11-09T00:37:47.812Z,10.60
2022-11-09T00:40:18.290Z,10.70
2022-11-09T00:42:47.509Z,10.80
2022-11-09T00:45:18.079Z,10.60
2022-11-09T00:47:46.853Z,10.80
2022-11-09T00:50:35.023Z,10.70
2022-11-09T00:53:03.862Z,10.70
2022-11-09T00:55:34.208Z,10.80
2022-11-09T00:58:04.154Z,10.70
2022-11-09T01:00:33.089Z,10.40
2022-11-09T01:03:02.130Z,10.30
2022-11-09T01:05:30.971Z,10.50
2022-11-09T01:07:59.726Z,10.60
2022-11-09T01:10:28.543Z,10.60
2022-11-09T01:12:58.851Z,10.60
2022-11-09T01:15:29.343Z,10.90
2022-11-09T01:17:58.201Z,10.80
2022-11-09T01:20:45.156Z,10.90
2022-11-09T01:23:15.217Z,10.90
2022-11-09T01:25:44.528Z,11.00
2022-11-09T01:28:14.696Z,11.10
2022-11-09T01:31:02.894Z,11.20
2022-11-09T01:33:34.319Z,11.30
2022-11-09T01:36:05.939Z,11.40
2022-11-09T01:38:34.979Z,11.40
2022-11-09T01:41:22.318Z,11.30
2022-11-09T01:44:14.340Z,11.10
2022-11-09T01:46:52.091Z,11.00
2022-11-09T01:49:37.478Z,11.30
2022-11-09T01:52:09.227Z,11.20
2022-11-09T01:54:41.344Z,11.30
2022-11-09T01:57:15.265Z,11.40
2022-11-09T02:00:07.605Z,11.40
2022-11-09T02:02:45.684Z,11.40
2022-11-09T02:05:19.103Z,11.40
2022-11-09T02:08:10.172Z,11.50
2022-11-09T02:10:45.052Z,11.50
2022-11-09T02:13:17.746Z,11.50
2022-11-09T02:15:49.094Z,11.60
2022-11-09T02:18:18.642Z,11.70
2022-11-09T02:20:50.733Z,11.60
2022-11-09T02:23:20.532Z,11.80
2022-11-09T02:25:54.581Z,11.80
2022-11-09T02:28:24.425Z,11.70
2022-11-09T02:30:55.828Z,11.60
2022-11-09T02:33:25.741Z,11.60
2022-11-09T02:35:56.767Z,11.80
2022-11-09T02:38:25.402Z,11.50
2022-11-09T02:40:54.842Z,11.40
2022-11-09T02:43:24.769Z,11.10
2022-11-09T02:45:55.390Z,11.20
2022-11-09T02:48:24.015Z,11.20
2022-11-09T02:50:53.030Z,11.40
2022-11-09T02:53:23.873Z,11.10
2022-11-09T02:55:52.591Z,11.10
2022-11-09T02:58:21.284Z,11.10
2022-11-09T03:00:49.962Z,11.30
2022-11-09T03:03:18.970Z,11.30
2022-11-09T03:05:47.966Z,10.40
2022-11-09T03:08:16.635Z,11.20
2022-11-09T03:10:48.631Z,11.20
2022-11-09T03:13:17.826Z,11.20
2022-11-09T03:15:46.583Z,11.20
2022-11-09T03:18:16.395Z,11.30
2022-11-09T03:20:45.054Z,11.10
2022-11-09T03:23:17.630Z,10.90
2022-11-09T03:25:50.110Z,10.80
2022-11-09T03:28:19.189Z,10.90
2022-11-09T03:30:50.919Z,10.80
2022-11-09T03:33:20.076Z,10.80
2022-11-09T03:35:48.935Z,10.60
2022-11-09T03:38:20.190Z,10.60
2022-11-09T03:40:51.305Z,10.50
2022-11-09T03:43:20.257Z,10.60
2022-11-09T03:45:49.517Z,10.60
2022-11-09T03:48:18.051Z,10.40
2022-11-09T03:50:47.823Z,10.40
2022-11-09T03:53:16.453Z,10.60
2022-11-09T03:55:45.236Z,10.60
2022-11-09T03:58:15.336Z,10.50
2022-11-09T04:00:43.913Z,10.40
2022-11-09T04:03:14.510Z,10.40
2022-11-09T04:05:43.064Z,10.50
2022-11-09T04:08:11.609Z,10.60
2022-11-09T04:10:40.194Z,10.50
2022-11-09T04:13:10.771Z,10.60
2022-11-09T04:15:40.715Z,10.80
2022-11-09T04:18:12.398Z,10.80
2022-11-09T04:20:40.996Z,10.80
2022-11-09T04:23:13.100Z,10.60
2022-11-09T04:25:42.714Z,10.60
2022-11-09T04:28:20.451Z,10.60
2022-11-09T04:30:50.481Z,10.60
2022-11-09T04:33:19.176Z,10.60
2022-11-09T04:35:48.081Z,10.60
2022-11-09T04:38:16.881Z,10.60
2022-11-09T04:40:45.441Z,10.60
2022-11-09T04:43:16.199Z,10.60
2022-11-09T04:45:44.851Z,10.60
2022-11-09T04:48:14.999Z,10.60
2022-11-09T04:50:43.604Z,10.60
2022-11-09T04:53:15.553Z,10.50
2022-11-09T04:55:44.913Z,10.60
2022-11-09T04:58:13.445Z,10.70
2022-11-09T05:00:42.163Z,10.70
2022-11-09T05:03:10.830Z,10.70
2022-11-09T05:05:48.003Z,10.70
2022-11-09T05:08:17.102Z,10.80
2022-11-09T05:10:45.782Z,10.80
2022-11-09T05:13:15.349Z,11.00
2022-11-09T05:15:45.905Z,11.10
2022-11-09T05:18:14.491Z,11.10
2022-11-09T05:20:44.541Z,11.10
2022-11-09T05:23:41.981Z,11.10
2022-11-09T05:26:10.571Z,11.10
2022-11-09T05:28:39.332Z,11.10
2022-11-09T05:31:08.382Z,11.30
2022-11-09T05:33:36.935Z,11.20
2022-11-09T05:36:12.152Z,11.10
2022-11-09T05:38:40.722Z,11.10
2022-11-09T05:41:11.351Z,11.30
2022-11-09T05:43:40.261Z,11.00
2022-11-09T05:46:09.592Z,11.30
2022-11-09T05:48:38.194Z,11.30
2022-11-09T05:51:09.615Z,11.30
2022-11-09T05:53:41.132Z,11.10
2022-11-09T05:56:14.842Z,11.20
2022-11-09T05:58:43.658Z,11.10
2022-11-09T06:01:14.054Z,11.20
2022-11-09T06:03:44.435Z,11.10
2022-11-09T06:06:16.329Z,11.20
2022-11-09T06:08:45.038Z,11.30
2022-11-09T06:11:18.478Z,11.30
2022-11-09T06:13:51.780Z,11.40
2022-11-09T06:16:20.405Z,11.40
2022-11-09T06:18:49.054Z,11.50
2022-11-09T06:21:19.140Z,11.50
2022-11-09T06:23:47.820Z,11.50
2022-11-09T06:26:16.423Z,11.60
2022-11-09T06:28:45.118Z,11.50
2022-11-09T06:31:15.599Z,11.70
2022-11-09T06:33:44.169Z,11.70
2022-11-09T06:36:13.377Z,11.80
2022-11-09T06:38:43.571Z,11.80
2022-11-09T06:41:12.554Z,11.80
2022-11-09T06:43:41.683Z,11.90
2022-11-09T06:46:11.021Z,12.00
2022-11-09T06:48:39.611Z,11.90
2022-11-09T06:51:08.692Z,12.00
2022-11-09T06:53:38.088Z,12.10
2022-11-09T06:56:09.671Z,12.20
2022-11-09T06:58:38.512Z,12.00
2022-11-09T07:01:11.362Z,12.00
2022-11-09T07:03:40.630Z,12.10
2022-11-09T07:06:13.065Z,12.10
2022-11-09T07:08:42.338Z,12.20
2022-11-09T07:11:16.315Z,12.20
2022-11-09T07:13:44.969Z,12.10
2022-11-09T07:16:19.316Z,12.20
2022-11-09T07:18:48.188Z,12.40
2022-11-09T07:21:16.757Z,12.40
2022-11-09T07:23:45.437Z,12.40
2022-11-09T07:26:15.400Z,12.30
2022-11-09T07:28:44.307Z,12.50
2022-11-09T07:31:14.291Z,12.40
2022-11-09T07:33:42.826Z,12.50
2022-11-09T07:36:11.386Z,12.40
2022-11-09T07:38:39.946Z,12.60
2022-11-09T07:41:08.538Z,12.50
2022-11-09T07:43:38.497Z,12.60
2022-11-09T07:46:07.391Z,12.70
2022-11-09T07:48:35.949Z,12.60
2022-11-09T07:51:04.688Z,12.70
2022-11-09T07:53:33.451Z,12.60
2022-11-09T07:56:04.368Z,12.60
2022-11-09T07:58:34.417Z,12.70
2022-11-09T08:01:08.943Z,12.90
2022-11-09T08:03:37.846Z,12.80
2022-11-09T08:06:06.627Z,12.90
2022-11-09T08:08:35.245Z,12.70
2022-11-09T08:11:03.816Z,12.90
2022-11-09T08:13:32.425Z,12.80
2022-11-09T08:16:04.383Z,12.90
2022-11-09T08:18:32.975Z,12.80
2022-11-09T08:21:03.906Z,13.00
2022-11-09T08:23:33.637Z,13.00
2022-11-09T08:26:05.437Z,13.00
2022-11-09T08:28:34.900Z,13.10
2022-11-09T08:31:07.048Z,13.20
2022-11-09T08:33:39.271Z,13.20
2022-11-09T08:36:12.205Z,13.30
2022-11-09T08:38:41.229Z,13.50
2022-11-09T08:41:13.425Z,13.40
2022-11-09T08:43:42.712Z,13.40
2022-11-09T08:46:12.728Z,13.50
2022-11-09T08:48:41.265Z,13.50
2022-11-09T08:51:09.854Z,13.70
2022-11-09T08:53:38.454Z,13.70
2022-11-09T08:56:07.934Z,13.60
2022-11-09T08:58:37.143Z,13.70
2022-11-09T09:01:13.907Z,13.80
2022-11-09T09:03:47.724Z,13.80
2022-11-09T09:06:16.300Z,13.70
2022-11-09T09:08:44.857Z,14.00
2022-11-09T09:11:13.434Z,13.90
2022-11-09T09:13:43.613Z,14.00
2022-11-09T09:16:15.775Z,13.80
2022-11-09T09:18:45.753Z,13.90
2022-11-09T09:21:14.326Z,14.00
2022-11-09T09:23:42.894Z,14.10
2022-11-09T09:26:11.454Z,14.10
2022-11-09T09:28:40.757Z,14.20
2022-11-09T09:31:12.052Z,14.40
2022-11-09T09:33:46.567Z,14.40
2022-11-09T09:36:19.035Z,14.40
2022-11-09T09:38:47.810Z,14.40
2022-11-09T09:41:22.874Z,14.30
2022-11-09T09:43:55.354Z,14.40
2022-11-09T09:46:28.058Z,14.40
2022-11-09T09:49:03.103Z,14.70
2022-11-09T09:51:38.654Z,14.50
2022-11-09T09:54:13.411Z,14.50
2022-11-09T09:56:44.842Z,14.50
2022-11-09T09:59:21.642Z,14.50
2022-11-09T10:01:51.694Z,14.40
2022-11-09T10:04:25.714Z,14.40
2022-11-09T10:07:03.904Z,14.60
2022-11-09T10:09:47.894Z,14.80
2022-11-09T10:12:26.214Z,14.90
2022-11-09T10:15:07.771Z,14.90
2022-11-09T10:17:44.664Z,15.20
2022-11-09T10:20:31.235Z,15.40
2022-11-09T10:23:18.594Z,15.40
2022-11-09T10:26:03.473Z,15.30
2022-11-09T10:29:01.614Z,15.10
2022-11-09T10:31:33.831Z,15.10
2022-11-09T10:34:13.505Z,15.30
2022-11-09T10:36:47.954Z,15.20
2022-11-09T10:39:17.135Z,15.40
2022-11-09T10:42:04.634Z,15.30
2022-11-09T10:44:52.076Z,15.40
2022-11-09T10:47:50.713Z,15.80
2022-11-09T10:50:40.632Z,15.70
2022-11-09T10:53:32.484Z,16.00
2022-11-09T10:56:22.173Z,16.10
2022-11-09T10:59:37.790Z,15.90
2022-11-09T11:02:48.224Z,16.30
2022-11-09T11:05:38.029Z,16.00
2022-11-09T11:08:33.187Z,15.40
2022-11-09T11:11:36.880Z,15.70
2022-11-09T11:14:31.562Z,15.80
2022-11-09T11:17:27.477Z,15.70
2022-11-09T11:20:32.431Z,16.40
2022-11-09T11:23:22.508Z,17.00
2022-11-09T11:26:28.155Z,17.50
2022-11-09T11:29:33.747Z,17.40
2022-11-09T11:32:24.484Z,16.90
2022-11-09T11:35:15.941Z,16.40
2022-11-09T11:38:16.359Z,15.90
2022-11-09T11:41:12.487Z,15.90
2022-11-09T11:44:09.630Z,15.90
2022-11-09T11:47:16.779Z,16.20
2022-11-09T11:50:37.035Z,16.10
2022-11-09T11:53:43.632Z,15.70
2022-11-09T11:56:35.220Z,15.60
2022-11-09T11:59:49.151Z,15.50
2022-11-09T12:03:15.065Z,15.60
2022-11-09T12:06:24.934Z,15.50
2022-11-09T12:09:36.685Z,15.50
2022-11-09T12:12:35.497Z,15.60
2022-11-09T12:15:33.378Z,15.60
2022-11-09T12:18:43.309Z,15.80
2022-11-09T12:21:38.665Z,16.00
2022-11-09T12:24:30.733Z,16.80
2022-11-09T12:27:36.643Z,17.20
2022-11-09T12:30:29.385Z,18.90
2022-11-09T12:33:25.229Z,19.10
2022-11-09T12:36:19.845Z,19.00
2022-11-09T12:39:12.912Z,18.90
2022-11-09T12:42:06.828Z,19.00
2022-11-09T12:45:03.157Z,19.80
2022-11-09T12:47:54.828Z,20.50
2022-11-09T12:50:44.913Z,20.00
2022-11-09T12:53:36.664Z,19.90
2022-11-09T12:56:26.814Z,19.10
2022-11-09T12:59:35.554Z,18.60
2022-11-09T13:02:28.633Z,18.80
2022-11-09T13:05:32.143Z,19.50
2022-11-09T13:08:22.413Z,18.70
2022-11-09T13:11:12.406Z,17.00
2022-11-09T13:14:35.507Z,16.70
2022-11-09T13:17:59.294Z,16.50
2022-11-09T13:20:55.215Z,16.20
2022-11-09T13:24:03.479Z,16.20
2022-11-09T13:26:58.574Z,16.40
2022-11-09T13:29:56.120Z,16.40
2022-11-09T13:33:20.595Z,16.70
2022-11-09T13:36:23.954Z,17.40
2022-11-09T13:39:30.226Z,17.60
2022-11-09T13:42:32.446Z,17.50
2022-11-09T13:45:31.310Z,17.20
2022-11-09T13:48:39.373Z,19.60
2022-11-09T13:51:43.493Z,17.20
2022-11-09T13:54:32.764Z,17.00
2022-11-09T13:57:20.334Z,16.90
2022-11-09T14:00:18.935Z,16.90
2022-11-09T14:03:17.573Z,16.90
2022-11-09T14:06:07.244Z,17.80
2022-11-09T14:08:55.835Z,18.80
2022-11-09T14:12:00.252Z,19.60
2022-11-09T14:15:05.046Z,20.00
2022-11-09T14:18:04.560Z,19.60
2022-11-09T14:20:57.622Z,19.30
2022-11-09T14:23:45.025Z,18.70
2022-11-09T14:26:33.819Z,18.70
2022-11-09T14:29:23.211Z,18.90
2022-11-09T14:32:30.361Z,18.50
2022-11-09T14:35:23.876Z,18.40
2022-11-09T14:38:19.181Z,18.00
2022-11-09T14:41:07.045Z,17.60
2022-11-09T14:43:58.135Z,16.60
2022-11-09T14:46:45.506Z,16.90
2022-11-09T14:49:32.923Z,16.80
2022-11-09T14:52:30.076Z,16.80
2022-11-09T14:55:20.035Z,16.70
2022-11-09T14:58:07.057Z,16.50
2022-11-09T15:01:21.714Z,16.40
2022-11-09T15:04:12.374Z,16.40
2022-11-09T15:07:02.533Z,16.40
2022-11-09T15:09:52.256Z,16.30
2022-11-09T15:12:46.273Z,16.30
2022-11-09T15:15:35.891Z,16.20
2022-11-09T15:18:33.568Z,16.10
2022-11-09T15:21:33.474Z,16.20
2022-11-09T15:24:22.274Z,16.10
2022-11-09T15:27:31.925Z,16.00
2022-11-09T15:30:30.594Z,16.00
2022-11-09T15:33:28.901Z,16.00
2022-11-09T15:36:26.359Z,15.90
2022-11-09T15:39:17.321Z,15.90
2022-11-09T15:42:04.813Z,15.90
2022-11-09T15:44:56.600Z,15.80
2022-11-09T15:47:49.795Z,15.90
2022-11-09T15:50:38.916Z,15.80
2022-11-09T15:53:26.303Z,15.80
2022-11-09T15:56:17.718Z,15.80
2022-11-09T15:59:04.893Z,15.80
2022-11-09T16:01:52.623Z,15.70
2022-11-09T16:04:39.723Z,15.60
2022-11-09T16:07:28.553Z,15.70
2022-11-09T16:10:15.994Z,15.70
2022-11-09T16:13:03.503Z,15.60
2022-11-09T16:15:50.353Z,15.60
2022-11-09T16:18:37.853Z,15.50
2022-11-09T16:21:25.613Z,15.50
2022-11-09T16:24:14.253Z,15.70
2022-11-09T16:27:02.420Z,15.60
2022-11-09T16:29:51.726Z,15.70
2022-11-09T16:32:39.611Z,15.50
2022-11-09T16:35:28.325Z,15.40
2022-11-09T16:38:15.993Z,15.30
2022-11-09T16:41:05.510Z,15.40
2022-11-09T16:43:54.800Z,15.30
2022-11-09T16:46:45.071Z,15.30
2022-11-09T16:49:33.210Z,15.40
2022-11-09T16:52:20.343Z,15.30
2022-11-09T16:55:09.616Z,15.30
2022-11-09T16:57:58.452Z,15.20
2022-11-09T17:03:55.920Z,15.10
2022-11-09T17:06:43.042Z,15.20
2022-11-09T17:09:34.040Z,15.00
2022-11-09T17:12:21.191Z,15.10
2022-11-09T17:15:11.281Z,15.10
2022-11-09T17:17:58.851Z,15.00
2022-11-09T17:20:47.291Z,14.90
2022-11-09T17:23:34.570Z,15.00
2022-11-09T17:26:23.050Z,14.90
2022-11-09T17:29:12.890Z,15.00
2022-11-09T17:32:01.720Z,15.10
2022-11-09T17:34:48.979Z,15.10
2022-11-09T17:37:36.043Z,14.90
2022-11-09T17:40:23.057Z,14.90
2022-11-09T17:43:10.521Z,14.90
2022-11-09T17:45:57.581Z,14.90
2022-11-09T17:48:48.044Z,14.90
2022-11-09T17:51:35.137Z,15.00
2022-11-09T17:54:22.876Z,15.00
2022-11-09T17:57:10.126Z,15.00
2022-11-09T17:59:57.566Z,14.90
2022-11-09T18:02:44.576Z,15.10
2022-11-09T18:05:33.145Z,15.10
2022-11-09T18:08:21.286Z,15.00
2022-11-09T18:11:09.254Z,15.10
2022-11-09T18:13:56.562Z,15.00
2022-11-09T18:16:43.771Z,15.00
2022-11-09T18:19:30.874Z,15.00
2022-11-09T18:22:19.677Z,15.00
2022-11-09T18:25:07.726Z,15.10
2022-11-09T18:27:55.094Z,14.90
2022-11-09T18:30:44.306Z,14.90
2022-11-09T18:33:32.335Z,14.80
2022-11-09T18:36:21.807Z,13.40
2022-11-09T18:39:11.482Z,14.90
2022-11-09T18:42:00.534Z,14.80
2022-11-09T18:44:49.651Z,14.90
2022-11-09T18:47:36.850Z,14.90
2022-11-09T18:50:23.964Z,14.90
2022-11-09T18:53:14.745Z,14.90
2022-11-09T18:56:07.004Z,14.80
2022-11-09T18:58:55.835Z,14.80
2022-11-09T19:01:43.194Z,14.60
2022-11-09T19:04:30.445Z,14.70
2022-11-09T19:07:18.303Z,14.70
2022-11-09T19:10:05.794Z,14.70
2022-11-09T19:12:55.415Z,14.90
2022-11-09T19:15:44.521Z,14.80
2022-11-09T19:18:31.954Z,14.90
2022-11-09T19:21:36.508Z,14.80
2022-11-09T19:24:26.851Z,14.80
2022-11-09T19:27:14.285Z,14.90
2022-11-09T19:30:08.979Z,14.70
2022-11-09T19:32:56.588Z,14.70
2022-11-09T19:35:45.044Z,14.70
2022-11-09T19:38:36.656Z,14.70
2022-11-09T19:41:26.561Z,14.70
2022-11-09T19:44:15.125Z,14.80
2022-11-09T19:47:03.978Z,14.70
2022-11-09T19:49:53.382Z,14.80
2022-11-09T19:52:40.623Z,14.60
2022-11-09T19:55:28.989Z,14.60
2022-11-09T19:58:18.486Z,14.60
2022-11-09T20:01:06.818Z,14.60
2022-11-09T20:03:57.729Z,14.70
2022-11-09T20:06:44.985Z,14.60
2022-11-09T20:09:33.235Z,14.60
2022-11-09T20:12:37.656Z,14.70
2022-11-09T20:15:25.275Z,14.70
2022-11-09T20:18:12.757Z,14.70
2022-11-09T20:21:01.636Z,14.70
2022-11-09T20:23:49.335Z,14.70
2022-11-09T20:26:36.936Z,14.60
2022-11-09T20:29:24.507Z,14.50
2022-11-09T20:32:12.557Z,14.50
2022-11-09T20:35:00.776Z,14.60
2022-11-09T20:37:49.625Z,14.50
2022-11-09T20:40:39.066Z,14.50
2022-11-09T20:43:30.276Z,14.50
2022-11-09T20:46:19.929Z,14.70
2022-11-09T20:49:07.537Z,14.60
2022-11-09T20:51:54.945Z,14.70
2022-11-09T20:54:45.843Z,14.50
2022-11-09T20:57:34.073Z,14.50
2022-11-09T21:00:24.385Z,14.60
2022-11-09T21:03:12.387Z,14.70
2022-11-09T21:06:00.449Z,14.50
2022-11-09T21:08:50.230Z,14.50
2022-11-09T21:11:59.637Z,14.70
2022-11-09T21:14:46.804Z,14.70
2022-11-09T21:17:34.217Z,14.60
2022-11-09T21:20:21.517Z,14.60
2022-11-09T21:23:27.549Z,14.70
2022-11-09T21:26:32.114Z,14.50
2022-11-09T21:29:40.034Z,14.70
2022-11-09T21:32:27.448Z,14.70
2022-11-09T21:35:14.772Z,14.60
2022-11-09T21:38:02.060Z,14.70
2022-11-09T21:40:49.540Z,14.70
2022-11-09T21:43:36.889Z,14.80
2022-11-09T21:46:26.311Z,14.70
2022-11-09T21:49:14.518Z,14.70
2022-11-09T21:52:06.782Z,14.70
2022-11-09T21:54:54.193Z,14.60
2022-11-09T21:57:41.650Z,14.60
2022-11-09T22:00:30.706Z,14.70
2022-11-09T22:03:19.885Z,14.60
2022-11-09T22:06:07.880Z,14.70
2022-11-09T22:08:56.204Z,14.70
2022-11-09T22:12:03.574Z,14.80
2022-11-09T22:15:10.396Z,14.80
2022-11-09T22:17:58.252Z,14.70
2022-11-09T22:20:55.862Z,14.70
2022-11-09T22:23:43.082Z,14.70
2022-11-09T22:26:31.981Z,14.60
2022-11-09T22:29:19.276Z,14.60
2022-11-09T22:32:07.289Z,14.50
2022-11-09T22:34:54.466Z,14.40
2022-11-09T22:37:43.467Z,14.30
2022-11-09T22:40:30.876Z,14.30
2022-11-09T22:43:20.714Z,14.30
2022-11-09T22:46:09.732Z,14.20
2022-11-09T22:48:57.196Z,14.00
2022-11-09T22:51:44.364Z,14.30
2022-11-09T22:54:33.285Z,14.30
2022-11-09T22:57:20.294Z,14.00
2022-11-09T23:00:11.025Z,14.10
2022-11-09T23:02:58.956Z,14.10
2022-11-09T23:05:46.748Z,14.20
2022-11-09T23:08:38.139Z,14.00
2022-11-09T23:11:26.935Z,13.90
2022-11-09T23:14:14.014Z,14.00
2022-11-09T23:17:23.413Z,14.00
2022-11-09T23:20:11.429Z,14.20
2022-11-09T23:22:58.683Z,14.00
2022-11-09T23:25:57.920Z,14.00
2022-11-09T23:28:46.780Z,14.10
2022-11-09T23:31:33.950Z,14.00
2022-11-09T23:34:20.937Z,14.00
2022-11-09T23:37:10.116Z,14.00
2022-11-09T23:39:59.587Z,14.00
2022-11-09T23:42:47.018Z,13.90
2022-11-09T23:45:37.157Z,16.60
2022-11-09T23:48:24.338Z,14.00
2022-11-09T23:51:11.435Z,13.90
2022-11-09T23:53:58.932Z,14.00
2022-11-09T23:57:04.979Z,14.00
2022-11-09T23:59:52.298Z,14.00
